AirNav   Pilot Hours Calculator
 
 520 users online  

ID31 Bens Ranch Airport
Cascade, Idaho, USA


FAA INFORMATION EFFECTIVE 26 JANUARY 2023

Location

FAA Identifier: ID31
Lat/Long: 44-19-53.2200N 116-01-50.4600W
44-19.887000N 116-01.841000W
44.3314500,-116.0306833
(estimated)
Elevation: 4830 ft. / 1472 m (estimated)
From city: 12 miles S of CASCADE, ID
Time zone: UTC -7 (UTC -6 during Daylight Saving Time)
Zip code: 83611

Airport Operations

Airport use: Private use. Permission required prior to landing
Activation date: 10/2022
Control tower: no
ARTCC: SALT LAKE CITY CENTER
FSS: BOISE FLIGHT SERVICE STATION
Attendance: 
Segmented circle: no

Nearby radio navigation aids

VOR radial/distance  VOR name  Freq  Var
DNJr145/27.2DONNELLY VOR/DME116.2019E

Airport Services

Runway Information

Runway 8/26

Dimensions: 2408 x 125 ft. / 734 x 38 m
Surface: turf
RUNWAY 8  RUNWAY 26
Latitude: 44-19.890000N44-19.884000N
Longitude: 116-02.117000W116-01.565000W
Elevation: 4830.0 ft.4805.0 ft.
Traffic pattern: leftright
Touchdown point: yes, no lightsyes, no lights

Airport Ownership and Management from official FAA records

Ownership: Privately-owned
Owner: BENJAMIN C. OYARZO
10116 ROUND VALLEY RD
CASCADE, ID 83611
Phone 209-480-4908
Manager: BENJAMIN C. OYARZO
10116 ROUND VALLEY RD
CASCADE, ID 83611
Phone 209-480-4908
BENNYOYARZO@GMAIL.COM

Airport Operational Statistics

Aircraft based on the field: 1
Single engine airplanes: 1
    

Instrument Procedures

There are no published instrument procedures at ID31.

Some nearby airports with instrument procedures:

KMYL - Mc Call Municipal Airport (34 nm N)
S87 - Weiser Municipal Airport (41 nm W)
KONO - Ontario Municipal Airport (46 nm SW)
KBOI - Boise Air Terminal/Gowen Field (47 nm S)
KEUL - Caldwell Executive Airport (49 nm SW)
 
Loc | Ops | Rwys | IFR | FBO | Links
Com | Nav | Svcs | Stats | Notes
Aerial photo
No photo
 
Airport distance calculator
Flying to Bens Ranch Airport? Find the distance to fly.

From to ID31

Sunrise and sunset
Times for 03-Feb-2023
 Local
(UTC-7)
 Zulu
(UTC)
Morning civil twilight07:3014:30
Sunrise08:0115:01
Sunset17:5500:55
Evening civil twilight18:2601:26

Current date and time
Zulu (UTC)  04-Feb-2023 06:52:19
Local (UTC-7)  03-Feb-2023 23:52:19
 
METAR
KMYL 
33nm N 
040601Z AUTO 00000KT 7SM BKN005 OVC070 M01/M04 A3013 RMK AO2 T10061044
KONO 
46nm SW 
040553Z AUTO 27006KT 10SM OVC100 01/M05 A3026 RMK AO2 SLP268 T00061050 10028 20000 53003
KBOI 
47nm S 
040553Z 00000KT 10SM BKN075 OVC090 01/M04 A3021 RMK AO2 SLP251 T00061039 10056 20000 53006
KSNT 
48nm E 
040551Z AUTO 16003KT M01/M06 A3014 RMK AO1 SLP224 T10111061 10022 21011 53002
KMAN 
50nm SW 
040635Z AUTO 00000KT 8SM M01/M02 A3024 RMK A01
KEUL 
50nm SW 
040556Z AUTO 32003KT 10SM OVC100 00/M04 A3024 RMK AO2 SLP261 T00001044 10039 20000 53005 FZRANO
TAF
KMYL 
33nm N 
040538Z 0406/0506 VRB03KT P6SM SCT015 BKN050 FM041700 16006KT P6SM BKN100
NOTAMs
Click for the latest NOTAMs
NOTAMs are issued by the DoD/FAA and will open in a separate window not controlled by AirNav.

 

 
 

Would you like to see your business listed on this page?

 If your business provides an interesting product or service to pilots, flight crews, aircraft, or users of the Bens Ranch Airport, you should consider listing it here.  To start the listing process, click on the button below
 
Add a business
 

Other Pages about Bens Ranch Airport

Update a link
 
Copyright © AirNav, LLC. All rights reserved. Privacy Policy  Contact